Time;durP1;ratioP1;P1;durP2;ratioP2;P2;SDS_P1;SDS_P2;PMS_P1;PMS_P2;Temp;Humidity;BMP_temperature;BMP_pressure;BME280_temperature;BME280_humidity;BME280_pressure;Samples;Min_cycle;Max_cycle;Signal;HPM_P1;HPM_P2
2022/07/26 00:01:48;;;;;;;;;;;;;;;16.73;100.00;99174.47;5076231;28;20015;-82
2022/07/26 00:04:15;;;;;;;;;;;;;;;16.72;100.00;99178.56;5076074;28;19928;-82
2022/07/26 00:07:00;;;;;;;;;;;;;;;16.42;100.00;99182.09;5094340;28;19931;-81
2022/07/26 00:09:28;;;;;;;;;;;;;;;16.31;100.00;99188.13;5092679;28;19928;-82
2022/07/26 00:11:56;;;;;;;;;;;;;;;15.93;100.00;99185.47;5094920;28;19924;-82
2022/07/26 00:14:24;;;;;;;;;;;;;;;15.46;100.00;99195.19;5079980;28;19939;-82
2022/07/26 00:16:51;;;;;;;;;;;;;;;15.62;100.00;99204.28;5080025;28;20066;-81
2022/07/26 00:19:18;;;;;;;;;;;;;;;16.07;100.00;99207.50;5098021;28;19924;-81
2022/07/26 00:21:46;;;;;;;;;;;;;;;16.28;100.00;99211.63;5079800;28;19928;-81
2022/07/26 00:24:13;;;;;;;;;;;;;;;16.39;100.00;99208.41;5097831;28;20344;-81
2022/07/26 00:26:40;;;;;;;;;;;;;;;16.57;100.00;99217.00;5096466;28;20006;-81
2022/07/26 00:29:07;;;;;;;;;;;;;;;16.63;100.00;99220.81;5097654;28;19924;-81
2022/07/26 00:31:34;;;;;;;;;;;;;;;16.69;100.00;99222.56;5097812;28;19924;-82
2022/07/26 00:34:01;;;;;;;;;;;;;;;16.71;100.00;99222.91;5097835;28;20025;-82
2022/07/26 00:36:28;;;;;;;;;;;;;;;16.55;100.00;99225.94;5097671;28;20364;-81
2022/07/26 00:38:56;;;;;;;;;;;;;;;16.50;100.00;99220.09;5097695;28;19964;-81
2022/07/26 00:41:23;;;;;;;;;;;;;;;16.60;100.00;99227.38;5097655;28;19924;-81
2022/07/26 00:43:53;;;;;;;;;;;;;;;16.64;100.00;99233.66;5096178;28;19977;-81
2022/07/26 00:46:21;;;;;;;;;;;;;;;16.65;100.00;99229.59;5097574;28;19930;-81
2022/07/26 00:48:48;;;;;;;;;;;;;;;16.73;100.00;99239.34;5096039;28;19931;-82
2022/07/26 00:51:15;;;;;;;;;;;;;;;16.87;100.00;99241.66;5096091;28;19963;-81
2022/07/26 00:53:44;;;;;;;;;;;;;;;16.88;100.00;99240.41;5097312;28;19924;-82
2022/07/26 00:56:13;;;;;;;;;;;;;;;16.91;100.00;99239.47;5095888;28;19928;-82
2022/07/26 00:58:41;;;;;;;;;;;;;;;16.37;100.00;99236.25;5079352;28;19924;-82
2022/07/26 01:01:08;;;;;;;;;;;;;;;15.67;100.00;99240.34;5097285;28;19924;-82
2022/07/26 01:03:36;;;;;;;;;;;;;;;15.42;100.00;99229.09;5096057;28;19932;-81
2022/07/26 01:06:03;;;;;;;;;;;;;;;15.64;100.00;99235.59;5112886;28;19931;-81
2022/07/26 01:08:31;;;;;;;;;;;;;;;16.13;100.00;99233.06;5097229;28;20386;-82
2022/07/26 01:10:58;;;;;;;;;;;;;;;16.35;100.00;99233.09;5095975;28;19946;-81
2022/07/26 01:13:25;;;;;;;;;;;;;;;16.49;100.00;99226.97;5097039;28;20101;-81
2022/07/26 01:15:53;;;;;;;;;;;;;;;16.45;100.00;99231.97;5062319;28;19972;-81
2022/07/26 01:18:20;;;;;;;;;;;;;;;16.48;100.00;99242.34;5078822;28;19924;-81
2022/07/26 01:20:47;;;;;;;;;;;;;;;16.58;100.00;99249.59;5096837;28;20057;-81
2022/07/26 01:23:15;;;;;;;;;;;;;;;16.46;100.00;99247.63;5094391;28;19928;-81
2022/07/26 01:25:42;;;;;;;;;;;;;;;16.51;100.00;99242.19;5095499;28;19924;-81
2022/07/26 01:28:10;;;;;;;;;;;;;;;16.58;100.00;99235.50;5054008;28;19928;-81
2022/07/26 01:30:37;;;;;;;;;;;;;;;16.60;100.00;99238.66;5022554;28;19967;-81
2022/07/26 01:33:05;;;;;;;;;;;;;;;16.44;100.00;99238.84;5056417;28;19975;-81
2022/07/26 01:35:32;;;;;;;;;;;;;;;16.51;100.00;99241.41;5055006;28;20368;-81
2022/07/26 01:37:59;;;;;;;;;;;;;;;16.65;100.00;99247.31;5056242;28;19931;-81
2022/07/26 01:40:26;;;;;;;;;;;;;;;16.68;100.00;99246.38;5056021;28;19929;-80
2022/07/26 01:42:53;;;;;;;;;;;;;;;16.44;100.00;99236.81;5056032;28;19924;-81
2022/07/26 01:45:20;;;;;;;;;;;;;;;16.38;100.00;99238.63;5056393;28;19925;-81
2022/07/26 01:47:49;;;;;;;;;;;;;;;16.31;100.00;99235.28;5054816;28;19924;-81
2022/07/26 01:50:16;;;;;;;;;;;;;;;16.43;100.00;99240.88;5038426;28;20364;-81
2022/07/26 01:52:43;;;;;;;;;;;;;;;16.30;100.00;99247.81;5056070;28;19924;-81
2022/07/26 01:55:11;;;;;;;;;;;;;;;15.88;100.00;99245.25;5055881;28;19968;-81
2022/07/26 01:57:38;;;;;;;;;;;;;;;15.41;100.00;99249.25;5037926;28;19932;-81
2022/07/26 02:00:05;;;;;;;;;;;;;;;15.19;100.00;99254.72;5038346;28;19924;-81
2022/07/26 02:02:33;;;;;;;;;;;;;;;15.36;100.00;99247.75;5054628;28;19925;-81
2022/07/26 02:05:00;;;;;;;;;;;;;;;15.48;100.00;99252.63;5055641;28;20372;-81
2022/07/26 02:07:29;;;;;;;;;;;;;;;15.72;100.00;99251.00;5087779;28;20339;-81
2022/07/26 02:09:57;;;;;;;;;;;;;;;16.01;100.00;99245.19;5054282;28;19935;-81
2022/07/26 02:12:24;;;;;;;;;;;;;;;16.13;100.00;99250.78;5055754;28;19948;-81
2022/07/26 02:14:51;;;;;;;;;;;;;;;16.22;100.00;99253.69;5055555;28;19924;-81
2022/07/26 02:17:18;;;;;;;;;;;;;;;16.26;100.00;99245.09;5055530;28;19925;-82
2022/07/26 02:19:45;;;;;;;;;;;;;;;16.27;100.00;99250.28;5054368;28;20430;-81
2022/07/26 02:22:12;;;;;;;;;;;;;;;16.38;100.00;99240.66;5055496;28;19964;-81
2022/07/26 02:24:39;;;;;;;;;;;;;;;16.23;100.00;99246.81;5053979;28;19970;-81
2022/07/26 02:27:07;;;;;;;;;;;;;;;16.15;100.00;99239.84;5078338;28;19981;-81
2022/07/26 02:29:34;;;;;;;;;;;;;;;15.73;100.00;99249.78;5094440;28;20007;-81
2022/07/26 02:32:01;;;;;;;;;;;;;;;15.62;100.00;99246.53;5077469;28;19930;-81
2022/07/26 02:34:28;;;;;;;;;;;;;;;15.80;100.00;99248.72;5093881;28;20312;-81
2022/07/26 02:36:58;;;;;;;;;;;;;;;16.14;100.00;99252.38;5095344;28;19924;-81
2022/07/26 02:39:26;;;;;;;;;;;;;;;16.18;100.00;99260.69;5093924;28;19928;-81
2022/07/26 02:41:54;;;;;;;;;;;;;;;15.84;100.00;99255.06;5060821;28;20033;-81
2022/07/26 02:44:21;;;;;;;;;;;;;;;15.51;100.00;99257.34;5095280;28;19924;-81
2022/07/26 02:46:48;;;;;;;;;;;;;;;15.55;100.00;99255.22;5094076;28;19924;-81
2022/07/26 02:49:16;;;;;;;;;;;;;;;15.49;100.00;99259.84;5093855;28;19928;-81
2022/07/26 02:51:44;;;;;;;;;;;;;;;15.78;100.00;99263.28;5095208;28;20023;-81
2022/07/26 02:54:11;;;;;;;;;;;;;;;16.00;100.00;99260.53;5093877;28;19928;-81
2022/07/26 02:56:38;;;;;;;;;;;;;;;16.20;100.00;99256.19;5127995;27;19938;-81
2022/07/26 02:59:06;;;;;;;;;;;;;;;16.19;100.00;99257.41;5095197;28;19931;-81
2022/07/26 03:01:37;;;;;;;;;;;;;;;15.73;100.00;99261.06;5094796;28;19938;-81
2022/07/26 03:04:06;;;;;;;;;;;;;;;15.24;100.00;99250.56;5093582;28;19923;-81
2022/07/26 03:06:33;;;;;;;;;;;;;;;15.39;100.00;99262.97;5095029;28;19928;-81
2022/07/26 03:09:00;;;;;;;;;;;;;;;15.94;100.00;99270.78;5094583;28;19924;-81
2022/07/26 03:11:27;;;;;;;;;;;;;;;16.25;100.00;99268.91;5076930;28;19952;-81
2022/07/26 03:13:54;;;;;;;;;;;;;;;16.33;100.00;99269.44;5094840;28;20332;-81
2022/07/26 03:16:21;;;;;;;;;;;;;;;16.43;100.00;99274.69;5094689;28;19924;-81
2022/07/26 03:18:51;;;;;;;;;;;;;;;16.46;100.00;99278.66;5094669;28;19924;-81
2022/07/26 03:21:18;;;;;;;;;;;;;;;16.48;100.00;99279.00;5093642;28;19924;-81
2022/07/26 03:23:45;;;;;;;;;;;;;;;16.44;100.00;99292.41;5093125;28;19924;-82
2022/07/26 03:26:14;;;;;;;;;;;;;;;16.41;100.00;99279.22;5076408;28;19930;-81
2022/07/26 03:28:44;;;;;;;;;;;;;;;16.35;100.00;99295.13;5076669;28;19931;-81
2022/07/26 03:31:11;;;;;;;;;;;;;;;16.51;100.00;99298.59;5094523;28;19928;-81
2022/07/26 03:33:39;;;;;;;;;;;;;;;16.48;100.00;99293.88;5094477;28;20363;-81
2022/07/26 03:36:06;;;;;;;;;;;;;;;16.59;100.00;99288.63;5094289;28;19924;-81
2022/07/26 03:38:33;;;;;;;;;;;;;;;16.41;100.00;99296.13;5093202;28;19931;-80
2022/07/26 03:41:00;;;;;;;;;;;;;;;16.24;100.00;99301.94;5076713;28;19973;-82
2022/07/26 03:43:28;;;;;;;;;;;;;;;16.27;100.00;99301.03;5093101;28;19924;-82
2022/07/26 03:45:55;;;;;;;;;;;;;;;16.27;100.00;99291.00;5093632;28;19967;-82
2022/07/26 03:48:22;;;;;;;;;;;;;;;15.78;100.00;99302.72;5084700;28;20376;-82
2022/07/26 03:50:49;;;;;;;;;;;;;;;15.79;100.00;99307.13;5066634;28;19929;-82
2022/07/26 03:53:16;;;;;;;;;;;;;;;16.16;100.00;99294.97;5076182;28;19959;-82
2022/07/26 03:58:29;;;;;;;;;;;;;;;15.65;100.00;99304.78;5049585;28;19928;-82
2022/07/26 04:00:57;;;;;;;;;;;;;;;16.23;100.00;99308.03;5061514;28;19948;-82
2022/07/26 04:03:24;;;;;;;;;;;;;;;16.34;100.00;99307.66;5093544;28;19929;-82
2022/07/26 04:05:51;;;;;;;;;;;;;;;16.03;100.00;99313.97;5065530;28;20296;-82
2022/07/26 04:08:19;;;;;;;;;;;;;;;16.28;100.00;99310.28;5070480;28;19928;-82
2022/07/26 04:10:49;;;;;;;;;;;;;;;16.37;100.00;99309.56;5056454;28;19932;-82
2022/07/26 04:13:18;;;;;;;;;;;;;;;16.49;100.00;99308.78;5056635;28;19948;-82
2022/07/26 04:15:45;;;;;;;;;;;;;;;16.63;100.00;99311.09;5073648;28;19924;-82
2022/07/26 04:18:13;;;;;;;;;;;;;;;16.76;100.00;99304.13;5089257;28;19928;-82
2022/07/26 04:20:40;;;;;;;;;;;;;;;16.73;100.00;99310.69;5060908;28;20374;-82
2022/07/26 04:23:08;;;;;;;;;;;;;;;16.69;100.00;99309.25;5052384;28;19925;-82
2022/07/26 04:25:35;;;;;;;;;;;;;;;16.60;100.00;99303.53;5052250;28;19925;-82
2022/07/26 04:28:02;;;;;;;;;;;;;;;16.62;100.00;99313.09;5052496;28;20055;-82
2022/07/26 04:30:29;;;;;;;;;;;;;;;16.70;100.00;99310.81;5051757;28;19924;-82
2022/07/26 04:32:56;;;;;;;;;;;;;;;16.60;100.00;99317.66;5085033;28;20402;-82
2022/07/26 04:35:24;;;;;;;;;;;;;;;16.64;100.00;99318.28;5068168;28;19925;-82
2022/07/26 04:37:51;;;;;;;;;;;;;;;16.52;100.00;99316.31;5052299;28;20398;-82
2022/07/26 04:40:19;;;;;;;;;;;;;;;16.42;100.00;99317.47;5053032;28;19924;-82
2022/07/26 04:42:49;;;;;;;;;;;;;;;16.59;100.00;99324.50;5068549;28;19952;-82
2022/07/26 04:45:16;;;;;;;;;;;;;;;16.66;100.00;99335.56;5053538;28;19971;-82
2022/07/26 04:47:44;;;;;;;;;;;;;;;16.68;100.00;99335.88;5072653;28;19924;-82
2022/07/26 04:50:11;;;;;;;;;;;;;;;16.76;100.00;99348.47;5066024;28;19932;-81
2022/07/26 04:52:42;;;;;;;;;;;;;;;16.70;100.00;99339.81;5050591;28;19926;-81
2022/07/26 04:55:10;;;;;;;;;;;;;;;16.32;100.00;99341.16;5073333;28;20001;-82
2022/07/26 04:57:37;;;;;;;;;;;;;;;16.38;100.00;99334.50;5073280;28;20021;-82
2022/07/26 05:00:06;;;;;;;;;;;;;;;16.58;100.00;99343.50;5075964;28;19932;-77
2022/07/26 05:02:48;;;;;;;;;;;;;;;16.72;100.00;99347.84;5093471;28;19925;-84
2022/07/26 05:05:15;;;;;;;;;;;;;;;16.79;100.00;99347.56;5101498;27;19924;-84
2022/07/26 05:07:43;;;;;;;;;;;;;;;16.81;100.00;99350.72;5091371;28;19932;-84
2022/07/26 05:10:11;;;;;;;;;;;;;;;16.77;100.00;99341.59;5059021;28;19928;-81
2022/07/26 05:12:38;;;;;;;;;;;;;;;16.88;100.00;99344.81;5076239;28;20077;-80
2022/07/26 05:15:05;;;;;;;;;;;;;;;16.84;100.00;99341.34;5092136;28;19931;-80
2022/07/26 05:17:33;;;;;;;;;;;;;;;16.82;100.00;99341.00;5096187;28;19924;-80
2022/07/26 05:20:00;;;;;;;;;;;;;;;16.85;100.00;99346.53;5095359;28;19924;-80
2022/07/26 05:22:28;;;;;;;;;;;;;;;16.99;100.00;99345.22;5095189;28;20383;-81
2022/07/26 05:24:56;;;;;;;;;;;;;;;16.98;100.00;99349.28;5096415;28;19929;-80
2022/07/26 05:27:23;;;;;;;;;;;;;;;17.10;100.00;99346.38;5096139;28;20443;-80
2022/07/26 05:29:50;;;;;;;;;;;;;;;17.14;100.00;99346.25;5096247;28;19923;-80
2022/07/26 05:32:17;;;;;;;;;;;;;;;17.14;100.00;99351.91;5096101;28;19924;-80
2022/07/26 05:34:44;;;;;;;;;;;;;;;17.14;100.00;99349.06;5095060;28;20395;-80
2022/07/26 05:37:11;;;;;;;;;;;;;;;17.19;100.00;99348.50;5078311;28;19924;-81
2022/07/26 05:39:40;;;;;;;;;;;;;;;17.26;100.00;99362.31;5094992;28;19924;-80
2022/07/26 05:42:07;;;;;;;;;;;;;;;17.35;100.00;99368.03;5095866;28;19928;-80
2022/07/26 05:44:34;;;;;;;;;;;;;;;17.40;100.00;99367.44;5094709;28;19932;-80
2022/07/26 05:47:03;;;;;;;;;;;;;;;17.38;100.00;99362.25;5095796;28;20299;-80
2022/07/26 05:49:32;;;;;;;;;;;;;;;17.40;100.00;99365.38;5095744;28;19924;-80
2022/07/26 05:51:59;;;;;;;;;;;;;;;17.53;100.00;99362.50;5095792;28;19931;-80
2022/07/26 05:54:27;;;;;;;;;;;;;;;17.51;100.00;99365.00;5095798;28;19935;-80
2022/07/26 05:56:53;;;;;;;;;;;;;;;17.43;100.00;99363.69;5095739;28;19939;-80
2022/07/26 05:59:21;;;;;;;;;;;;;;;17.45;100.00;99372.50;5095477;28;20341;-80
2022/07/26 06:01:49;;;;;;;;;;;;;;;17.43;100.00;99363.69;5094189;28;19932;-81
2022/07/26 06:04:16;;;;;;;;;;;;;;;17.45;100.00;99372.50;5094310;28;20376;-80
2022/07/26 06:06:43;;;;;;;;;;;;;;;17.47;100.00;99375.66;5094385;28;20015;-81
2022/07/26 06:09:10;;;;;;;;;;;;;;;17.46;100.00;99366.38;5095062;28;19930;-81
2022/07/26 06:11:37;;;;;;;;;;;;;;;17.39;100.00;99363.03;5095308;28;19928;-81
2022/07/26 06:14:04;;;;;;;;;;;;;;;17.41;100.00;99377.47;5095529;28;19973;-81
2022/07/26 06:16:31;;;;;;;;;;;;;;;17.39;100.00;99374.31;5095238;28;19931;-80
2022/07/26 06:18:58;;;;;;;;;;;;;;;17.53;100.00;99373.81;5095427;28;19989;-80
2022/07/26 06:21:25;;;;;;;;;;;;;;;17.51;100.00;99370.66;5095326;28;19924;-80
2022/07/26 06:23:53;;;;;;;;;;;;;;;17.56;100.00;99378.53;5095362;28;19924;-80
2022/07/26 06:26:22;;;;;;;;;;;;;;;17.54;100.00;99383.84;5094897;28;20018;-80
2022/07/26 06:28:52;;;;;;;;;;;;;;;17.54;100.00;99381.81;5095199;28;19924;-81
2022/07/26 06:31:19;;;;;;;;;;;;;;;17.65;100.00;99387.06;5094949;28;20398;-81
2022/07/26 06:33:47;;;;;;;;;;;;;;;17.34;100.00;99389.81;5093936;28;20383;-80
2022/07/26 06:36:14;;;;;;;;;;;;;;;17.36;100.00;99381.69;5093836;28;19931;-80
2022/07/26 06:38:41;;;;;;;;;;;;;;;17.11;100.00;99392.34;5094927;28;19924;-78
2022/07/26 06:41:08;;;;;;;;;;;;;;;17.21;100.00;99396.78;5060261;28;19931;-80
2022/07/26 06:43:35;;;;;;;;;;;;;;;17.03;100.00;99397.47;5095090;28;19924;-80
2022/07/26 06:46:03;;;;;;;;;;;;;;;16.47;100.00;99398.69;5094930;28;20436;-83
2022/07/26 06:48:30;;;;;;;;;;;;;;;16.50;100.00;99414.69;5093946;28;19924;-83
2022/07/26 06:50:57;;;;;;;;;;;;;;;16.37;100.00;99408.28;5094868;28;20150;-83
2022/07/26 06:53:24;;;;;;;;;;;;;;;16.49;100.00;99408.28;5093671;28;20309;-83
2022/07/26 06:55:51;;;;;;;;;;;;;;;16.55;100.00;99408.47;5094034;28;20405;-83
2022/07/26 06:58:18;;;;;;;;;;;;;;;16.76;100.00;99417.00;5076948;28;20000;-83
2022/07/26 07:00:46;;;;;;;;;;;;;;;16.75;100.00;99420.28;5093037;28;19924;-84
2022/07/26 07:03:13;;;;;;;;;;;;;;;16.82;100.00;99423.63;5076281;28;20013;-86
2022/07/26 07:05:41;;;;;;;;;;;;;;;16.56;100.00;99418.50;5093315;28;19924;-86
2022/07/26 07:08:10;;;;;;;;;;;;;;;16.23;100.00;99424.44;5093255;28;19924;-86
2022/07/26 07:10:37;;;;;;;;;;;;;;;16.20;100.00;99428.16;5093107;28;19924;-86
2022/07/26 07:13:05;;;;;;;;;;;;;;;16.15;100.00;99437.19;5093099;28;19924;-86
2022/07/26 07:15:32;;;;;;;;;;;;;;;16.30;100.00;99439.53;5092956;28;19950;-86
2022/07/26 07:18:00;;;;;;;;;;;;;;;16.30;100.00;99439.53;5076335;28;20011;-86
2022/07/26 07:20:27;;;;;;;;;;;;;;;16.37;100.00;99444.94;5076083;28;19928;-86
2022/07/26 07:22:54;;;;;;;;;;;;;;;16.25;100.00;99444.50;5059169;28;20426;-86
2022/07/26 07:25:21;;;;;;;;;;;;;;;16.23;100.00;99443.38;5093074;28;19924;-87
2022/07/26 07:27:51;;;;;;;;;;;;;;;16.31;100.00;99430.63;5093561;28;20013;-87
2022/07/26 07:30:18;;;;;;;;;;;;;;;16.60;100.00;99434.06;5076191;28;20571;-86
2022/07/26 07:32:46;;;;;;;;;;;;;;;16.79;100.00;99440.69;5092926;28;19972;-85
2022/07/26 07:35:13;;;;;;;;;;;;;;;17.10;100.00;99442.38;5059615;28;19925;-85
2022/07/26 07:37:40;;;;;;;;;;;;;;;17.34;100.00;99440.66;5093906;28;19927;-85
2022/07/26 07:40:08;;;;;;;;;;;;;;;17.59;100.00;99448.25;5092857;28;19928;-81
2022/07/26 07:42:35;;;;;;;;;;;;;;;17.60;100.00;99438.50;5093874;28;19964;-79
2022/07/26 07:45:03;;;;;;;;;;;;;;;17.80;100.00;99434.09;5092853;28;19930;-79
2022/07/26 07:47:33;;;;;;;;;;;;;;;17.94;100.00;99441.22;5092247;28;20015;-79
2022/07/26 07:50:02;;;;;;;;;;;;;;;17.30;100.00;99436.41;5096508;28;19925;-80
2022/07/26 07:53:03;;;;;;;;;;;;;;;17.89;100.00;99436.94;5077538;28;19925;-80
2022/07/26 07:55:31;;;;;;;;;;;;;;;18.03;100.00;99441.25;5056555;28;19978;-80
2022/07/26 07:58:05;;;;;;;;;;;;;;;18.32;100.00;99441.69;5075176;28;20349;-80
2022/07/26 08:00:32;;;;;;;;;;;;;;;18.40;100.00;99443.00;5072374;28;19931;-81
2022/07/26 08:02:59;;;;;;;;;;;;;;;18.40;100.00;99437.34;5072324;28;19932;-81
2022/07/26 08:05:26;;;;;;;;;;;;;;;18.37;100.00;99438.28;5073726;28;20009;-81
2022/07/26 08:07:53;;;;;;;;;;;;;;;18.34;100.00;99435.56;5073328;28;19924;-81
2022/07/26 08:10:20;;;;;;;;;;;;;;;18.41;100.00;99444.56;5055377;28;19973;-81
2022/07/26 08:12:47;;;;;;;;;;;;;;;18.48;100.00;99440.66;5073323;28;19959;-81
2022/07/26 08:15:15;;;;;;;;;;;;;;;18.45;100.00;99439.53;5072354;28;20333;-81
2022/07/26 08:17:42;;;;;;;;;;;;;;;18.57;100.00;99441.44;5072355;28;19925;-80
2022/07/26 08:20:09;;;;;;;;;;;;;;;18.63;100.00;99433.91;5055475;28;19925;-80
2022/07/26 08:22:37;;;;;;;;;;;;;;;18.72;100.00;99436.75;5073328;28;19931;-81
2022/07/26 08:25:04;;;;;;;;;;;;;;;18.74;100.00;99444.78;5072199;28;19924;-80
2022/07/26 08:27:31;;;;;;;;;;;;;;;18.87;100.00;99448.28;5072569;28;19924;-80
2022/07/26 08:30:04;;;;;;;;;;;;;;;18.93;100.00;99446.38;5072252;28;19978;-80
2022/07/26 08:32:31;;;;;;;;;;;;;;;17.49;100.00;99444.56;5107073;28;19925;-80
2022/07/26 08:34:58;;;;;;;;;;;;;;;17.69;100.00;99449.88;5077159;28;19982;-80
2022/07/26 08:37:25;;;;;;;;;;;;;;;17.40;100.00;99455.00;5075474;28;19931;-80
2022/07/26 08:39:52;;;;;;;;;;;;;;;17.15;100.00;99455.91;5076930;28;19925;-80
2022/07/26 08:42:21;;;;;;;;;;;;;;;17.56;100.00;99458.44;5058951;28;20013;-80
2022/07/26 08:44:49;;;;;;;;;;;;;;;17.23;100.00;99456.44;5075488;28;19924;-80
2022/07/26 08:47:17;;;;;;;;;;;;;;;17.23;100.00;99450.78;5075742;28;19931;-80
2022/07/26 08:49:45;;;;;;;;;;;;;;;17.43;100.00;99449.22;5076765;28;20053;-79
2022/07/26 08:52:12;;;;;;;;;;;;;;;17.34;100.00;99451.19;5075632;28;19936;-79
2022/07/26 08:54:44;;;;;;;;;;;;;;;17.83;100.00;99449.31;5075383;28;19952;-79
2022/07/26 08:57:11;;;;;;;;;;;;;;;18.19;100.00;99449.47;5075336;28;19924;-79
2022/07/26 08:59:38;;;;;;;;;;;;;;;18.20;100.00;99456.72;5075423;28;19959;-79
2022/07/26 09:02:06;;;;;;;;;;;;;;;18.50;100.00;99458.72;5058607;28;19928;-79
2022/07/26 09:04:43;;;;;;;;;;;;;;;18.78;100.00;99457.53;5058753;28;20011;-79
2022/07/26 09:07:15;;;;;;;;;;;;;;;19.67;100.00;99461.63;5076584;28;19928;-79
2022/07/26 09:09:59;;;;;;;;;;;;;;;19.46;100.00;99461.84;5058389;28;19924;-79
2022/07/26 09:12:28;;;;;;;;;;;;;;;19.81;100.00;99462.22;5076402;28;20070;-79
2022/07/26 09:14:55;;;;;;;;;;;;;;;20.19;100.00;99451.88;5076223;28;20023;-79
2022/07/26 09:17:24;;;;;;;;;;;;;;;20.00;100.00;99449.56;5076241;28;19995;-79
2022/07/26 09:20:07;;;;;;;;;;;;;;;19.52;100.00;99443.69;5074921;28;19978;-79
2022/07/26 09:22:36;;;;;;;;;;;;;;;19.25;100.00;99452.19;5075720;28;20031;-79
2022/07/26 09:25:18;;;;;;;;;;;;;;;19.40;100.00;99463.72;5075964;28;19924;-79
2022/07/26 09:27:45;;;;;;;;;;;;;;;19.05;100.00;99468.88;5074642;28;19925;-79
2022/07/26 09:30:12;;;;;;;;;;;;;;;18.70;100.00;99463.97;5074680;28;19990;-79
2022/07/26 09:32:54;;;;;;;;;;;;;;;18.40;100.00;99465.63;5074539;28;19932;-79
2022/07/26 09:35:22;;;;;;;;;;;;;;;19.27;100.00;99469.56;5074393;28;19970;-79
2022/07/26 09:38:15;;;;;;;;;;;;;;;20.18;100.00;99455.19;5076100;28;19928;-79
2022/07/26 09:40:43;;;;;;;;;;;;;;;20.50;100.00;99454.41;5108399;28;20346;-79
2022/07/26 09:43:15;;;;;;;;;;;;;;;20.80;100.00;99450.44;5074518;28;20393;-82
2022/07/26 09:45:42;;;;;;;;;;;;;;;21.52;100.00;99455.56;5075338;28;20007;-82
2022/07/26 09:48:10;;;;;;;;;;;;;;;21.56;100.00;99449.66;5058200;28;19924;-82
2022/07/26 09:50:37;;;;;;;;;;;;;;;21.15;100.00;99448.63;5074617;28;20272;-82
2022/07/26 09:53:11;;;;;;;;;;;;;;;21.37;100.00;99464.06;5075378;28;19924;-82
2022/07/26 09:55:44;;;;;;;;;;;;;;;20.26;100.00;99464.94;5076011;28;19929;-82
2022/07/26 09:58:12;;;;;;;;;;;;;;;18.87;100.00;99474.53;5075826;28;19928;-81
2022/07/26 10:00:39;;;;;;;;;;;;;;;18.91;100.00;99471.53;5074497;28;19993;-79
2022/07/26 10:03:06;;;;;;;;;;;;;;;19.15;100.00;99476.13;5075168;28;19993;-79
2022/07/26 10:05:34;;;;;;;;;;;;;;;18.96;100.00;99480.19;5075228;28;19968;-79
2022/07/26 10:08:02;;;;;;;;;;;;;;;19.35;100.00;99473.66;5074858;28;19924;-80
2022/07/26 10:10:30;;;;;;;;;;;;;;;19.29;100.00;99480.41;5075078;28;19932;-79
2022/07/26 10:13:01;;;;;;;;;;;;;;;19.47;100.00;99489.69;5074014;28;19929;-79
2022/07/26 10:15:43;;;;;;;;;;;;;;;19.90;100.00;99482.84;5073968;28;20009;-80
2022/07/26 10:18:30;;;;;;;;;;;;;;;19.87;100.00;99488.69;5075180;28;19959;-80
2022/07/26 10:20:58;;;;;;;;;;;;;;;19.64;100.00;99485.25;5074710;28;20383;-80
2022/07/26 10:23:31;;;;;;;;;;;;;;;19.55;100.00;99476.75;5074391;28;19931;-80
2022/07/26 10:25:58;;;;;;;;;;;;;;;19.59;100.00;99496.44;5074391;28;20307;-79
2022/07/26 10:28:26;;;;;;;;;;;;;;;18.57;100.00;99505.78;5073109;28;20398;-79
2022/07/26 10:31:13;;;;;;;;;;;;;;;18.22;100.00;99490.97;5073033;28;19990;-80
2022/07/26 10:33:43;;;;;;;;;;;;;;;17.70;100.00;99488.19;5074093;28;19924;-79
2022/07/26 10:36:25;;;;;;;;;;;;;;;17.94;100.00;99483.63;5072903;28;19994;-80
2022/07/26 10:39:00;;;;;;;;;;;;;;;17.63;100.00;99496.94;5074457;28;19928;-79
2022/07/26 10:41:40;;;;;;;;;;;;;;;17.77;100.00;99490.72;5057137;28;19928;-79
2022/07/26 10:44:18;;;;;;;;;;;;;;;17.86;100.00;99491.59;5056793;28;20257;-79
2022/07/26 10:47:10;;;;;;;;;;;;;;;17.74;100.00;99502.97;5074466;28;19924;-79
2022/07/26 10:49:40;;;;;;;;;;;;;;;17.57;100.00;99499.56;5073119;28;19939;-81
2022/07/26 10:52:16;;;;;;;;;;;;;;;17.01;100.00;99495.16;5056345;28;19932;-80
2022/07/26 10:54:55;;;;;;;;;;;;;;;17.19;100.00;99515.09;5074307;28;19946;-80
2022/07/26 10:57:23;;;;;;;;;;;;;;;17.16;100.00;99510.34;5073146;28;19925;-80
2022/07/26 10:59:50;;;;;;;;;;;;;;;17.21;100.00;99509.75;5072906;28;20356;-80
2022/07/26 11:02:22;;;;;;;;;;;;;;;17.64;100.00;99510.63;5074239;28;19977;-80
2022/07/26 11:04:57;;;;;;;;;;;;;;;17.75;100.00;99504.56;5074276;28;19924;-81
2022/07/26 11:07:24;;;;;;;;;;;;;;;18.09;100.00;99512.91;5074155;28;19925;-80
2022/07/26 11:09:58;;;;;;;;;;;;;;;18.54;100.00;99509.53;5074669;28;20101;-80
2022/07/26 11:12:25;;;;;;;;;;;;;;;18.45;100.00;99501.78;5073975;28;20015;-80
2022/07/26 11:14:53;;;;;;;;;;;;;;;18.71;100.00;99505.94;5074188;28;19924;-81
2022/07/26 11:17:23;;;;;;;;;;;;;;;18.66;100.00;99511.44;5072725;28;19924;-80
2022/07/26 11:19:50;;;;;;;;;;;;;;;18.77;100.00;99509.75;5072704;28;19924;-80
2022/07/26 11:22:18;;;;;;;;;;;;;;;18.85;100.00;99505.38;5073758;28;19925;-80
2022/07/26 11:24:45;;;;;;;;;;;;;;;18.93;100.00;99512.28;5072766;28;19924;-80
2022/07/26 11:27:12;;;;;;;;;;;;;;;19.28;100.00;99505.13;5073636;28;19925;-80
2022/07/26 11:29:39;;;;;;;;;;;;;;;18.84;100.00;99495.28;5073543;28;19925;-80
2022/07/26 11:32:17;;;;;;;;;;;;;;;19.43;100.00;99508.13;5073716;28;19925;-80
2022/07/26 11:34:45;;;;;;;;;;;;;;;19.40;100.00;99504.16;5073570;28;19925;-78
2022/07/26 11:37:13;;;;;;;;;;;;;;;19.44;100.00;99501.97;5073748;28;19924;-77
2022/07/26 11:39:40;;;;;;;;;;;;;;;19.91;100.00;99503.47;5073746;28;20322;-77
2022/07/26 11:42:12;;;;;;;;;;;;;;;19.89;100.00;99495.44;5073627;28;19931;-77
2022/07/26 11:44:43;;;;;;;;;;;;;;;19.91;100.00;99490.09;5072301;28;20331;-77
2022/07/26 11:47:14;;;;;;;;;;;;;;;19.30;100.00;99496.94;5073567;28;19935;-77
2022/07/26 11:49:44;;;;;;;;;;;;;;;18.79;100.00;99493.09;5072293;28;19955;-77
2022/07/26 11:52:14;;;;;;;;;;;;;;;19.04;100.00;99480.66;5073485;28;20023;-77
2022/07/26 11:54:45;;;;;;;;;;;;;;;19.49;100.00;99494.88;5073651;28;19924;-77
2022/07/26 11:57:13;;;;;;;;;;;;;;;20.12;100.00;99489.06;5055533;28;20299;-77
2022/07/26 11:59:40;;;;;;;;;;;;;;;20.10;100.00;99488.00;5055672;28;19931;-76
2022/07/26 12:02:07;;;;;;;;;;;;;;;20.66;100.00;99479.56;5073545;28;20006;-76
2022/07/26 12:04:38;;;;;;;;;;;;;;;20.58;100.00;99484.03;5072107;28;19925;-76
2022/07/26 12:07:11;;;;;;;;;;;;;;;20.45;100.00;99478.56;5073852;28;19925;-76
2022/07/26 12:09:38;;;;;;;;;;;;;;;20.38;100.00;99486.63;5076363;28;19975;-76
2022/07/26 12:12:07;;;;;;;;;;;;;;;20.12;100.00;99489.06;5076062;28;19932;-76
2022/07/26 12:14:35;;;;;;;;;;;;;;;20.07;100.00;99484.03;5077333;28;19924;-76
2022/07/26 12:17:09;;;;;;;;;;;;;;;20.38;100.00;99486.63;5077466;28;19929;-75
2022/07/26 12:19:37;;;;;;;;;;;;;;;20.45;100.00;99474.94;5077012;28;20015;-76
2022/07/26 12:22:08;;;;;;;;;;;;;;;20.43;100.00;99478.25;5077310;28;19947;-81
2022/07/26 12:24:40;;;;;;;;;;;;;;;20.83;100.00;99478.66;5075987;28;20001;-81
2022/07/26 12:27:09;;;;;;;;;;;;;;;21.06;100.00;99465.75;5075796;28;20032;-78
2022/07/26 12:29:37;;;;;;;;;;;;;;;20.82;100.00;99470.63;5075703;28;19925;-78
2022/07/26 12:32:04;;;;;;;;;;;;;;;20.25;100.00;99477.56;5077028;28;19924;-78
2022/07/26 12:34:36;;;;;;;;;;;;;;;19.66;100.00;99479.91;5075632;28;20016;-78
2022/07/26 12:37:11;;;;;;;;;;;;;;;20.29;100.00;99478.97;5075463;28;19947;-79
2022/07/26 12:39:38;;;;;;;;;;;;;;;19.61;100.00;99472.03;5075721;28;19970;-78
2022/07/26 12:42:21;;;;;;;;;;;;;;;19.32;100.00;99476.63;5061881;28;20074;-78
2022/07/26 12:44:49;;;;;;;;;;;;;;;19.14;100.00;99474.56;5065693;28;19975;-78
2022/07/26 12:47:16;;;;;;;;;;;;;;;19.06;100.00;99478.97;5076449;28;19948;-78